Time;durP1;ratioP1;P1;durP2;ratioP2;P2;SDS_P1;SDS_P2;PMS_P1;PMS_P2;Temp;Humidity;BMP_temperature;BMP_pressure;BME280_temperature;BME280_humidity;BME280_pressure;Samples;Min_cycle;Max_cycle;Signal;HPM_P1;HPM_P2
2023/01/31 00:01:09;;;;;;;27.38;4.28;;;4.80;99.90;;;;;;5050774;28;20383;-74
2023/01/31 00:03:36;;;;;;;34.42;4.25;;;4.80;99.90;;;;;;5043124;28;20487;-74
2023/01/31 00:06:22;;;;;;;19.85;3.55;;;4.80;99.90;;;;;;5066490;28;20117;-73
2023/01/31 00:08:50;;;;;;;24.38;3.53;;;4.90;99.90;;;;;;5062976;28;20040;-73
2023/01/31 00:11:17;;;;;;;21.52;3.47;;;4.90;99.90;;;;;;5062384;28;20254;-73
2023/01/31 00:13:44;;;;;;;22.77;3.22;;;4.90;99.90;;;;;;5061009;28;20032;-73
2023/01/31 00:16:11;;;;;;;30.35;4.97;;;4.90;99.90;;;;;;5064695;28;20032;-73
2023/01/31 00:18:37;;;;;;;17.80;3.35;;;4.90;99.90;;;;;;5065303;28;20033;-73
2023/01/31 00:21:27;;;;;;;27.23;4.03;;;4.80;99.90;;;;;;5068796;28;20062;-73
2023/01/31 00:23:54;;;;;;;15.85;3.58;;;4.90;99.90;;;;;;5048339;28;20032;-73
2023/01/31 00:26:20;;;;;;;23.80;3.20;;;4.80;99.90;;;;;;5067111;28;20036;-73
2023/01/31 00:28:48;;;;;;;23.67;4.05;;;4.90;99.90;;;;;;5046416;28;20029;-73
2023/01/31 00:31:16;;;;;;;20.38;3.55;;;4.80;99.90;;;;;;5070188;28;20017;-73
2023/01/31 00:33:44;;;;;;;25.58;3.42;;;4.80;99.90;;;;;;5067696;28;20013;-73
2023/01/31 00:36:13;;;;;;;24.35;3.58;;;4.80;99.90;;;;;;5070972;28;20090;-73
2023/01/31 00:38:40;;;;;;;27.00;3.58;;;4.80;99.90;;;;;;5071255;28;20044;-73
2023/01/31 00:41:07;;;;;;;20.75;3.40;;;4.70;99.90;;;;;;5070543;28;20024;-73
2023/01/31 00:43:33;;;;;;;29.63;3.70;;;4.70;99.90;;;;;;5070298;28;20040;-74
2023/01/31 00:45:59;;;;;;;19.40;3.55;;;4.70;99.90;;;;;;5071627;28;20028;-74
2023/01/31 00:48:25;;;;;;;30.30;3.42;;;4.70;99.90;;;;;;5069641;28;20055;-73
2023/01/31 00:50:50;;;;;;;28.95;3.53;;;4.70;99.90;;;;;;5069803;28;20032;-73
2023/01/31 00:53:22;;;;;;;23.58;3.50;;;4.70;99.90;;;;;;5066000;28;20037;-73
2023/01/31 00:55:48;;;;;;;24.02;3.35;;;4.70;99.90;;;;;;5069160;28;20025;-73
2023/01/31 00:58:13;;;;;;;21.17;3.85;;;4.70;99.90;;;;;;5067862;28;20028;-73
2023/01/31 01:00:39;;;;;;;25.98;3.78;;;4.70;99.90;;;;;;5065817;28;20025;-74
2023/01/31 01:03:04;;;;;;;23.02;3.97;;;4.70;99.90;;;;;;5066987;28;20025;-73
2023/01/31 01:05:30;;;;;;;24.17;3.55;;;4.60;99.90;;;;;;5068953;28;20016;-73
2023/01/31 01:07:55;;;;;;;25.90;3.83;;;4.70;99.90;;;;;;5061923;28;20076;-73
2023/01/31 01:10:21;;;;;;;36.80;4.55;;;4.70;99.90;;;;;;5068930;28;20018;-73
2023/01/31 01:12:47;;;;;;;31.33;4.30;;;4.70;99.90;;;;;;5064771;28;20487;-73
2023/01/31 01:15:12;;;;;;;29.15;4.03;;;4.60;99.90;;;;;;5069468;28;20141;-73
2023/01/31 01:17:38;;;;;;;27.40;4.22;;;4.70;99.90;;;;;;5062116;28;20435;-73
2023/01/31 01:20:04;;;;;;;30.63;4.60;;;4.70;99.90;;;;;;5065292;28;20029;-73
2023/01/31 01:22:30;;;;;;;45.15;5.60;;;4.70;99.90;;;;;;5060978;28;20020;-73
2023/01/31 01:24:56;;;;;;;40.17;5.78;;;4.70;99.90;;;;;;5069930;28;20064;-73
2023/01/31 01:27:22;;;;;;;43.20;5.80;;;4.80;99.90;;;;;;5062231;28;20058;-73
2023/01/31 01:29:47;;;;;;;36.28;5.05;;;4.80;99.90;;;;;;5063392;28;20060;-73
2023/01/31 01:32:13;;;;;;;44.50;6.13;;;4.90;99.90;;;;;;5068411;28;20403;-73
2023/01/31 01:34:38;;;;;;;38.67;5.70;;;4.90;99.90;;;;;;5048838;28;20060;-73
2023/01/31 01:37:18;;;;;;;50.97;7.25;;;5.00;99.90;;;;;;5051136;28;20522;-73
2023/01/31 01:39:46;;;;;;;39.85;6.40;;;5.10;99.90;;;;;;5063617;28;20068;-73
2023/01/31 01:42:20;;;;;;;38.33;6.75;;;5.10;99.90;;;;;;5067573;28;20035;-73
2023/01/31 01:44:58;;;;;;;45.50;7.82;;;5.20;99.90;;;;;;5066253;28;20028;-73
2023/01/31 01:47:48;;;;;;;40.55;6.28;;;5.20;99.90;;;;;;5066546;28;20128;-73
2023/01/31 01:50:18;;;;;;;29.15;6.03;;;5.30;99.90;;;;;;5068671;28;20111;-73
2023/01/31 01:52:51;;;;;;;40.97;7.43;;;5.30;99.90;;;;;;5060154;28;20150;-73
2023/01/31 01:55:37;;;;;;;45.03;8.05;;;5.40;99.90;;;;;;5070015;28;20024;-73
2023/01/31 01:58:10;;;;;;;40.15;6.50;;;5.50;99.90;;;;;;5066611;28;20044;-73
2023/01/31 02:00:37;;;;;;;43.20;7.47;;;5.50;99.90;;;;;;5063693;28;20421;-73
2023/01/31 02:03:05;;;;;;;46.65;7.60;;;5.60;99.90;;;;;;5063478;28;20044;-73
2023/01/31 02:05:50;;;;;;;45.90;6.90;;;5.60;99.90;;;;;;5069400;28;20090;-73
2023/01/31 02:08:20;;;;;;;44.58;7.10;;;5.70;99.90;;;;;;5066017;28;20033;-73
2023/01/31 02:10:52;;;;;;;42.47;7.70;;;5.80;99.90;;;;;;5061907;28;20480;-73
2023/01/31 02:13:19;;;;;;;45.45;7.43;;;5.90;99.90;;;;;;5067681;28;20024;-73
2023/01/31 02:15:45;;;;;;;43.20;7.00;;;5.90;99.90;;;;;;5070034;28;20027;-73
2023/01/31 02:18:11;;;;;;;36.05;6.97;;;5.90;99.90;;;;;;5066474;28;20621;-73
2023/01/31 02:21:02;;;;;;;37.67;7.38;;;6.00;99.90;;;;;;5069835;28;20031;-73
2023/01/31 02:23:43;;;;;;;48.70;7.32;;;6.00;99.90;;;;;;5059834;28;20040;-73
2023/01/31 02:26:28;;;;;;;35.67;7.03;;;6.00;99.90;;;;;;5063907;28;20035;-73
2023/01/31 02:29:24;;;;;;;37.67;7.35;;;6.00;99.90;;;;;;5059239;28;20020;-73
2023/01/31 02:32:15;;;;;;;40.78;7.03;;;5.90;99.90;;;;;;5071150;28;20028;-73
2023/01/31 02:35:07;;;;;;;38.78;7.28;;;5.90;99.90;;;;;;5072684;28;20037;-73
2023/01/31 02:37:45;;;;;;;40.63;7.35;;;5.90;99.90;;;;;;5059940;28;20397;-73
2023/01/31 02:40:29;;;;;;;36.40;7.53;;;5.90;99.90;;;;;;5069970;28;20024;-73
2023/01/31 02:43:34;;;;;;;42.63;7.30;;;5.90;99.90;;;;;;5071882;28;20048;-73
2023/01/31 02:46:23;;;;;;;50.58;8.18;;;5.90;99.90;;;;;;5068996;28;20437;-73
2023/01/31 02:48:56;;;;;;;52.05;8.38;;;5.90;99.90;;;;;;5059832;28;20100;-73
2023/01/31 02:51:24;;;;;;;41.75;8.82;;;5.90;99.90;;;;;;5071967;28;20369;-73
2023/01/31 02:54:12;;;;;;;42.58;7.40;;;5.90;99.90;;;;;;5066590;28;20455;-73
2023/01/31 02:56:41;;;;;;;47.42;7.88;;;5.90;99.90;;;;;;5063732;28;20040;-73
2023/01/31 02:59:21;;;;;;;43.60;7.70;;;5.90;99.90;;;;;;5064447;28;20028;-73
2023/01/31 03:01:59;;;;;;;41.08;7.50;;;6.00;99.90;;;;;;5066444;28;20086;-73
2023/01/31 03:04:30;;;;;;;45.40;8.02;;;6.00;99.90;;;;;;5064845;28;20036;-73
2023/01/31 03:07:07;;;;;;;36.13;8.13;;;5.90;99.90;;;;;;5069257;28;20059;-73
2023/01/31 03:10:01;;;;;;;48.65;7.80;;;5.90;99.90;;;;;;5069171;28;20042;-73
2023/01/31 03:12:45;;;;;;;39.13;7.82;;;5.90;99.90;;;;;;5064656;28;20106;-73
2023/01/31 03:18:30;;;;;;;56.88;8.40;;;5.90;99.90;;;;;;5070524;28;20054;-73
2023/01/31 03:21:15;;;;;;;38.65;7.90;;;5.80;99.90;;;;;;5068435;28;20414;-73
2023/01/31 03:23:44;;;;;;;47.80;9.20;;;5.80;99.90;;;;;;5071592;28;20037;-73
2023/01/31 03:26:10;;;;;;;37.10;8.00;;;5.80;99.90;;;;;;5072985;28;20033;-73
2023/01/31 03:28:41;;;;;;;37.67;8.27;;;5.80;99.90;;;;;;5067153;28;20297;-73
2023/01/31 03:31:06;;;;;;;40.45;8.07;;;5.80;99.90;;;;;;5071976;28;20063;-73
2023/01/31 03:33:36;;;;;;;51.38;8.98;;;5.70;99.90;;;;;;5066693;28;20044;-73
2023/01/31 03:36:37;;;;;;;49.50;8.30;;;5.70;99.90;;;;;;5070556;28;20103;-73
2023/01/31 03:39:09;;;;;;;40.05;7.90;;;5.80;99.90;;;;;;5053538;28;20045;-73
2023/01/31 03:41:48;;;;;;;41.95;8.00;;;5.70;99.90;;;;;;5065326;28;20042;-74
2023/01/31 03:44:20;;;;;;;46.15;8.30;;;5.80;99.90;;;;;;5066078;28;20454;-73
2023/01/31 03:46:52;;;;;;;50.90;8.77;;;5.80;99.90;;;;;;5064027;28;20060;-73
2023/01/31 03:49:20;;;;;;;57.38;8.77;;;5.80;99.90;;;;;;5059059;28;20037;-73
2023/01/31 03:51:51;;;;;;;43.63;8.30;;;5.80;99.90;;;;;;5071014;28;20025;-73
2023/01/31 03:54:24;;;;;;;46.30;8.00;;;5.80;99.90;;;;;;5060024;28;20067;-73
2023/01/31 03:56:55;;;;;;;40.97;8.30;;;5.80;99.90;;;;;;5062147;28;20100;-73
2023/01/31 03:59:28;;;;;;;36.13;7.53;;;5.90;99.90;;;;;;5063763;28;20367;-73
2023/01/31 04:01:56;;;;;;;37.83;7.35;;;5.90;99.90;;;;;;5066267;28;20036;-73
2023/01/31 04:04:32;;;;;;;44.53;7.90;;;5.90;99.90;;;;;;5064650;28;20475;-73
2023/01/31 04:06:59;;;;;;;42.15;8.07;;;5.90;99.90;;;;;;5061190;28;20052;-73
2023/01/31 04:09:25;;;;;;;39.15;7.07;;;5.90;99.90;;;;;;5065875;28;20017;-73
2023/01/31 04:11:52;;;;;;;41.53;7.70;;;6.00;99.90;;;;;;5057929;28;20563;-73
2023/01/31 04:14:18;;;;;;;43.17;8.25;;;6.00;99.90;;;;;;5071302;28;20021;-73
2023/01/31 04:16:44;;;;;;;36.55;8.15;;;6.00;99.90;;;;;;5067482;28;20479;-73
2023/01/31 04:19:10;;;;;;;47.30;8.25;;;6.00;99.90;;;;;;5051939;28;20039;-73
2023/01/31 04:21:35;;;;;;;39.83;7.55;;;6.00;99.90;;;;;;5065310;28;20043;-73
2023/01/31 04:24:01;;;;;;;39.88;7.45;;;6.00;99.90;;;;;;5066766;28;20465;-73
2023/01/31 04:26:27;;;;;;;40.35;7.35;;;5.90;99.90;;;;;;5059514;28;20074;-73
2023/01/31 04:28:53;;;;;;;41.95;7.30;;;5.90;99.90;;;;;;5067198;28;20020;-73
2023/01/31 04:31:18;;;;;;;32.00;6.93;;;5.90;99.90;;;;;;5071004;28;20025;-73
2023/01/31 04:33:44;;;;;;;38.53;6.80;;;5.90;99.90;;;;;;5042689;28;20025;-73
2023/01/31 04:36:10;;;;;;;34.00;6.72;;;5.90;99.90;;;;;;5064324;28;20492;-73
2023/01/31 04:38:35;;;;;;;37.85;6.10;;;5.90;99.90;;;;;;5064300;28;20028;-73
2023/01/31 04:41:01;;;;;;;42.38;6.22;;;5.90;99.90;;;;;;5070186;28;20013;-73
2023/01/31 04:43:27;;;;;;;37.58;6.65;;;5.90;99.90;;;;;;5068891;28;20052;-73
2023/01/31 04:45:52;;;;;;;35.88;6.28;;;5.90;99.90;;;;;;5066369;28;20086;-73
2023/01/31 04:48:18;;;;;;;28.38;5.38;;;6.00;99.90;;;;;;5068246;28;20050;-73
2023/01/31 04:50:43;;;;;;;38.55;6.28;;;6.00;99.90;;;;;;5063929;28;20024;-73
2023/01/31 04:53:09;;;;;;;32.65;6.50;;;6.00;99.90;;;;;;5070858;28;20025;-73
2023/01/31 04:55:35;;;;;;;29.35;6.10;;;6.00;99.90;;;;;;5064005;28;20024;-73
2023/01/31 04:58:01;;;;;;;37.95;6.05;;;6.00;99.90;;;;;;5060711;28;20024;-73
2023/01/31 05:00:27;;;;;;;30.85;6.03;;;6.00;99.90;;;;;;5067808;28;20039;-73
2023/01/31 05:02:53;;;;;;;36.72;5.72;;;6.10;99.90;;;;;;5065383;28;20028;-73
2023/01/31 05:05:19;;;;;;;33.00;5.95;;;6.10;99.90;;;;;;5049562;28;20029;-73
2023/01/31 05:07:45;;;;;;;32.95;5.80;;;6.00;99.90;;;;;;5052694;28;20167;-73
2023/01/31 05:10:11;;;;;;;38.55;5.38;;;6.00;99.90;;;;;;5037357;28;20108;-73
2023/01/31 05:12:36;;;;;;;45.95;5.57;;;6.00;99.90;;;;;;5064188;28;20103;-73
2023/01/31 05:15:03;;;;;;;54.65;6.68;;;6.00;99.90;;;;;;5065465;28;20024;-73
2023/01/31 05:17:29;;;;;;;33.63;7.07;;;6.00;99.90;;;;;;5067548;28;20450;-73
2023/01/31 05:19:58;;;;;;;38.42;5.85;;;6.00;99.90;;;;;;5065561;28;20103;-73
2023/01/31 05:22:25;;;;;;;36.40;5.95;;;6.00;99.90;;;;;;5060268;28;20029;-73
2023/01/31 05:24:50;;;;;;;40.90;6.10;;;6.00;99.90;;;;;;5069879;28;20121;-73
2023/01/31 05:27:18;;;;;;;68.22;19.08;;;6.10;99.90;;;;;;5059016;28;20158;-72
2023/01/31 05:29:44;;;;;;;48.50;6.90;;;6.10;99.90;;;;;;5065030;28;20048;-73
2023/01/31 05:32:10;;;;;;;42.90;5.78;;;6.00;99.90;;;;;;5069521;28;20020;-73
2023/01/31 05:34:36;;;;;;;29.55;5.32;;;6.10;99.90;;;;;;5070347;28;20058;-73
2023/01/31 05:37:02;;;;;;;37.85;5.80;;;6.10;99.90;;;;;;5069237;28;20495;-73
2023/01/31 05:39:28;;;;;;;32.40;5.43;;;6.10;99.90;;;;;;5047277;28;20463;-73
2023/01/31 05:41:54;;;;;;;35.40;5.88;;;6.10;99.90;;;;;;5067688;28;20149;-73
2023/01/31 05:44:19;;;;;;;34.10;5.53;;;6.10;99.90;;;;;;5069396;28;20135;-73
2023/01/31 05:46:45;;;;;;;32.15;5.55;;;6.10;99.90;;;;;;5070653;28;20024;-73
2023/01/31 05:49:11;;;;;;;35.45;5.50;;;6.10;99.90;;;;;;5065576;28;20029;-73
2023/01/31 05:51:38;;;;;;;34.30;6.22;;;6.10;99.90;;;;;;5068839;28;20099;-72
2023/01/31 05:54:04;;;;;;;31.38;4.90;;;6.20;99.90;;;;;;5066128;28;20025;-73
2023/01/31 05:56:30;;;;;;;40.10;6.10;;;6.20;99.90;;;;;;5066277;28;20124;-72
2023/01/31 05:58:55;;;;;;;34.88;5.07;;;6.20;99.90;;;;;;5066987;28;20470;-72
2023/01/31 06:01:23;;;;;;;34.30;5.63;;;6.20;99.90;;;;;;5068180;28;20035;-72
2023/01/31 06:03:49;;;;;;;34.58;5.00;;;6.20;99.90;;;;;;5066112;28;20031;-73
2023/01/31 06:06:15;;;;;;;35.30;5.65;;;6.20;99.90;;;;;;5070275;28;20048;-73
2023/01/31 06:08:41;;;;;;;32.75;5.78;;;6.20;99.90;;;;;;5066029;28;20561;-72
2023/01/31 06:11:09;;;;;;;31.70;5.40;;;6.30;99.90;;;;;;5067226;28;20025;-72
2023/01/31 06:13:36;;;;;;;35.72;5.72;;;6.30;99.90;;;;;;5068275;28;20067;-72
2023/01/31 06:16:02;;;;;;;26.80;4.45;;;6.30;99.90;;;;;;5068415;28;20032;-73
2023/01/31 06:18:28;;;;;;;39.63;5.65;;;6.30;99.90;;;;;;5064408;28;20035;-73
2023/01/31 06:20:53;;;;;;;31.20;4.90;;;6.40;99.90;;;;;;5066617;28;20328;-73
2023/01/31 06:23:19;;;;;;;33.42;5.13;;;6.40;99.90;;;;;;5069472;28;20070;-72
2023/01/31 06:25:51;;;;;;;22.30;4.63;;;6.40;99.90;;;;;;5063994;28;20103;-72
2023/01/31 06:28:18;;;;;;;28.33;4.63;;;6.50;99.90;;;;;;5066550;28;20483;-73
2023/01/31 06:30:44;;;;;;;29.05;4.55;;;6.50;99.90;;;;;;5068501;28;20383;-73
2023/01/31 06:33:10;;;;;;;33.55;4.47;;;6.60;99.90;;;;;;5065201;28;20040;-73
2023/01/31 06:35:36;;;;;;;26.42;5.18;;;6.60;99.90;;;;;;5066474;28;20021;-72
2023/01/31 06:38:01;;;;;;;28.13;4.32;;;6.60;99.90;;;;;;5063369;28;20047;-72
2023/01/31 06:40:27;;;;;;;22.38;3.55;;;6.70;99.90;;;;;;5067598;28;20025;-73
2023/01/31 06:42:53;;;;;;;31.42;4.18;;;6.80;99.90;;;;;;5065915;28;20024;-73
2023/01/31 06:45:18;;;;;;;22.90;3.45;;;6.80;99.90;;;;;;5051082;28;20080;-72
2023/01/31 06:47:44;;;;;;;24.80;3.47;;;6.80;99.90;;;;;;5067838;28;20186;-72
2023/01/31 06:50:11;;;;;;;24.38;3.00;;;6.90;99.90;;;;;;5070881;28;20035;-72
2023/01/31 06:52:38;;;;;;;24.75;3.70;;;6.90;99.90;;;;;;5069995;28;20526;-72
2023/01/31 06:55:04;;;;;;;20.85;3.25;;;6.90;99.90;;;;;;5052533;28;20099;-72
2023/01/31 06:57:30;;;;;;;16.42;3.55;;;6.90;99.90;;;;;;5064738;28;20391;-73
2023/01/31 06:59:56;;;;;;;22.85;3.45;;;6.90;99.90;;;;;;5069115;28;20021;-72
2023/01/31 07:02:21;;;;;;;23.63;3.75;;;6.90;99.90;;;;;;5051126;28;20021;-72
2023/01/31 07:04:47;;;;;;;26.65;3.45;;;6.90;99.90;;;;;;5066805;28;20412;-72
2023/01/31 07:07:12;;;;;;;23.45;3.78;;;6.90;99.90;;;;;;5058633;28;20040;-72
2023/01/31 07:09:38;;;;;;;22.50;3.33;;;7.00;99.90;;;;;;5059195;28;20543;-72
2023/01/31 07:12:04;;;;;;;19.90;3.35;;;7.00;99.90;;;;;;5062470;28;20032;-72
2023/01/31 07:14:29;;;;;;;27.90;3.83;;;7.00;99.90;;;;;;5066740;28;20055;-72
2023/01/31 07:16:55;;;;;;;22.60;3.10;;;7.00;99.90;;;;;;5065157;28;20034;-72
2023/01/31 07:19:21;;;;;;;13.50;2.75;;;7.00;99.90;;;;;;5072300;28;20020;-72
2023/01/31 07:21:48;;;;;;;25.50;3.30;;;7.00;99.90;;;;;;5071176;28;20043;-72
2023/01/31 07:24:14;;;;;;;19.23;3.17;;;7.00;99.90;;;;;;5058823;28;20020;-72
2023/01/31 07:26:40;;;;;;;24.00;3.80;;;7.00;99.90;;;;;;5056888;28;20025;-72
2023/01/31 07:29:06;;;;;;;22.67;3.72;;;7.00;99.90;;;;;;5071350;28;20498;-72
2023/01/31 07:31:32;;;;;;;21.00;3.33;;;7.10;99.90;;;;;;5072825;28;20024;-72
2023/01/31 07:33:58;;;;;;;16.27;3.08;;;7.10;99.90;;;;;;5071936;28;20087;-72
2023/01/31 07:36:25;;;;;;;21.27;3.20;;;7.00;99.90;;;;;;5056612;28;20148;-72
2023/01/31 07:38:55;;;;;;;25.58;2.97;;;7.10;99.90;;;;;;5066832;28;20490;-73
2023/01/31 07:41:22;;;;;;;24.90;3.40;;;7.10;99.90;;;;;;5062006;28;20112;-72
2023/01/31 07:43:48;;;;;;;25.25;3.50;;;7.00;99.90;;;;;;5071300;28;20448;-72
2023/01/31 07:46:14;;;;;;;22.30;3.20;;;7.00;99.90;;;;;;5072317;28;20096;-72
2023/01/31 07:48:39;;;;;;;24.15;3.00;;;7.00;99.90;;;;;;5070796;28;20032;-73
2023/01/31 07:51:06;;;;;;;23.08;3.15;;;7.00;99.90;;;;;;5071521;28;20400;-72
2023/01/31 07:53:34;;;;;;;24.73;3.60;;;7.00;99.90;;;;;;5071268;28;20073;-72
2023/01/31 07:56:16;;;;;;;13.77;2.70;;;7.00;99.90;;;;;;5071887;28;20025;-72
2023/01/31 07:58:43;;;;;;;18.38;2.90;;;7.00;99.90;;;;;;5072000;28;20025;-72
2023/01/31 08:03:58;;;;;;;22.15;2.88;;;6.90;99.90;;;;;;5071657;28;20066;-73
2023/01/31 08:06:26;;;;;;;19.90;3.17;;;6.90;99.90;;;;;;5073782;28;20024;-72
2023/01/31 08:08:51;;;;;;;19.23;3.00;;;6.90;99.90;;;;;;5083819;28;20053;-72
2023/01/31 08:11:17;;;;;;;19.38;3.00;;;6.90;99.90;;;;;;5091295;28;20024;-73
2023/01/31 08:13:42;;;;;;;20.58;2.90;;;6.90;99.90;;;;;;5089311;28;20063;-72
2023/01/31 08:16:09;;;;;;;20.83;3.03;;;6.80;99.90;;;;;;5085812;28;20024;-72
2023/01/31 08:18:36;;;;;;;22.17;3.00;;;6.80;99.90;;;;;;5071856;28;20044;-72
2023/01/31 08:21:02;;;;;;;24.55;4.32;;;6.70;99.90;;;;;;5087845;28;20106;-72
2023/01/31 08:23:28;;;;;;;25.92;3.42;;;6.70;99.90;;;;;;5090774;28;20427;-72
2023/01/31 08:26:05;;;;;;;29.50;3.55;;;6.70;99.90;;;;;;5090208;28;20382;-72
2023/01/31 08:28:32;;;;;;;21.55;3.35;;;6.70;99.90;;;;;;5088827;28;20024;-72
2023/01/31 08:30:58;;;;;;;20.85;3.00;;;6.70;99.90;;;;;;5081026;28;20039;-72
2023/01/31 08:33:23;;;;;;;19.33;4.03;;;6.70;99.90;;;;;;5091273;28;20020;-72
2023/01/31 08:35:49;;;;;;;24.98;3.50;;;6.70;99.90;;;;;;5090421;28;20024;-72
2023/01/31 08:38:15;;;;;;;28.48;3.70;;;6.70;99.90;;;;;;5091187;28;20075;-72
2023/01/31 08:40:40;;;;;;;21.25;3.25;;;6.70;99.90;;;;;;5090138;28;20678;-72
2023/01/31 08:43:08;;;;;;;21.35;3.33;;;6.70;99.90;;;;;;5088791;28;20024;-73
2023/01/31 08:45:34;;;;;;;20.33;3.47;;;6.70;99.90;;;;;;5090947;28;20047;-73
2023/01/31 08:47:59;;;;;;;22.40;3.30;;;6.70;99.90;;;;;;5090913;28;20028;-72
2023/01/31 08:50:27;;;;;;;28.83;3.55;;;6.70;99.90;;;;;;5091663;28;20028;-72
2023/01/31 08:52:54;;;;;;;19.33;3.08;;;6.70;99.90;;;;;;5087099;28;20020;-72
2023/01/31 08:55:21;;;;;;;29.77;3.20;;;6.80;99.90;;;;;;5090742;28;20016;-72
2023/01/31 08:57:47;;;;;;;23.85;3.50;;;6.80;99.90;;;;;;5085758;28;20016;-72
2023/01/31 09:00:13;;;;;;;31.55;3.60;;;6.80;99.90;;;;;;5090809;28;20020;-72
2023/01/31 09:02:39;;;;;;;32.47;4.00;;;6.80;99.90;;;;;;5078251;28;20028;-72
2023/01/31 09:05:07;;;;;;;25.75;4.38;;;6.90;99.90;;;;;;5084570;28;20012;-72
2023/01/31 09:07:33;;;;;;;24.25;4.05;;;6.90;99.90;;;;;;5086712;28;20040;-72
2023/01/31 09:09:59;;;;;;;25.05;3.80;;;6.90;99.90;;;;;;5071062;28;20467;-72
2023/01/31 09:12:24;;;;;;;32.22;4.00;;;6.90;99.90;;;;;;5076946;28;20090;-73
2023/01/31 09:14:50;;;;;;;36.22;4.68;;;7.00;99.90;;;;;;5091072;28;20030;-72
2023/01/31 09:17:16;;;;;;;33.22;4.50;;;7.00;99.90;;;;;;5090400;28;20402;-72
2023/01/31 09:19:42;;;;;;;25.92;4.10;;;7.00;99.90;;;;;;5083741;28;20024;-72
2023/01/31 09:22:08;;;;;;;26.88;4.18;;;7.00;99.90;;;;;;5084010;28;20467;-72
2023/01/31 09:24:33;;;;;;;30.45;4.45;;;7.10;99.90;;;;;;5089211;28;20031;-72
2023/01/31 09:26:59;;;;;;;31.75;4.80;;;7.10;99.90;;;;;;5089926;28;20028;-72
2023/01/31 09:29:25;;;;;;;33.75;4.35;;;7.20;99.90;;;;;;5085511;28;20468;-72
2023/01/31 09:31:51;;;;;;;30.88;4.22;;;7.30;99.90;;;;;;5081795;28;20027;-72
2023/01/31 09:34:18;;;;;;;28.15;4.25;;;7.40;99.90;;;;;;5077103;28;20080;-72
2023/01/31 09:36:44;;;;;;;28.55;4.15;;;7.50;99.90;;;;;;5088877;28;20021;-72
2023/01/31 09:39:11;;;;;;;34.40;4.32;;;7.60;99.90;;;;;;5089212;28;20024;-72
2023/01/31 09:41:51;;;;;;;26.40;3.88;;;7.60;99.90;;;;;;5089404;28;20024;-72
2023/01/31 09:44:24;;;;;;;23.20;4.03;;;7.60;99.90;;;;;;5085022;28;20437;-72
2023/01/31 09:46:55;;;;;;;25.65;3.70;;;7.60;99.90;;;;;;5088867;28;20068;-73
2023/01/31 09:49:30;;;;;;;30.98;4.10;;;7.70;99.90;;;;;;5088192;28;20020;-72
2023/01/31 09:51:59;;;;;;;29.58;4.18;;;7.70;99.90;;;;;;5078755;28;20021;-72
2023/01/31 09:54:35;;;;;;;37.33;4.93;;;7.70;99.90;;;;;;5088933;28;20035;-73
2023/01/31 09:57:20;;;;;;;34.53;4.70;;;7.70;99.90;;;;;;5083619;28;20481;-72
2023/01/31 09:59:56;;;;;;;25.08;4.57;;;7.80;99.90;;;;;;5078159;28;20024;-72
2023/01/31 10:02:27;;;;;;;27.90;3.70;;;7.80;99.90;;;;;;5089109;28;20043;-72
2023/01/31 10:05:05;;;;;;;32.72;4.93;;;7.80;99.90;;;;;;5088703;28;20377;-72
2023/01/31 10:07:41;;;;;;;33.30;4.50;;;7.80;99.90;;;;;;5074894;28;20506;-72
2023/01/31 10:10:31;;;;;;;35.92;4.57;;;7.80;99.90;;;;;;5083050;28;20031;-72
2023/01/31 10:13:02;;;;;;;23.25;4.05;;;7.90;99.90;;;;;;5087959;28;20031;-72
2023/01/31 10:15:49;;;;;;;26.63;4.50;;;7.90;99.90;;;;;;5088239;28;20374;-72
2023/01/31 10:18:26;;;;;;;29.27;4.45;;;8.00;99.90;;;;;;5068238;28;20029;-72
2023/01/31 10:21:00;;;;;;;26.83;4.00;;;8.00;99.90;;;;;;5087224;28;20085;-72
2023/01/31 10:23:39;;;;;;;23.92;3.88;;;8.00;99.90;;;;;;5089994;28;20036;-72
2023/01/31 10:26:27;;;;;;;33.58;4.88;;;8.00;99.90;;;;;;5083318;28;20047;-71
2023/01/31 10:29:27;;;;;;;30.30;4.10;;;8.10;99.90;;;;;;5083053;28;20044;-72
2023/01/31 10:32:36;;;;;;;25.92;4.30;;;8.10;99.90;;;;;;5082892;28;20024;-72
2023/01/31 10:35:13;;;;;;;27.50;4.45;;;8.20;99.90;;;;;;4984744;28;20063;-72
2023/01/31 10:37:45;;;;;;;28.70;3.97;;;8.20;99.90;;;;;;4965796;28;20030;-72
2023/01/31 10:40:32;;;;;;;29.80;4.53;;;8.20;99.90;;;;;;4975875;28;20723;-72
2023/01/31 10:43:20;;;;;;;22.60;3.58;;;8.30;99.90;;;;;;4974941;28;20022;-72
2023/01/31 10:45:45;;;;;;;30.60;4.28;;;8.30;99.90;;;;;;4974553;28;20097;-72
2023/01/31 10:48:19;;;;;;;26.52;3.90;;;8.40;99.90;;;;;;4982727;28;20142;-72
2023/01/31 10:51:21;;;;;;;33.92;5.00;;;8.40;99.90;;;;;;4985155;28;20102;-73
2023/01/31 10:54:06;;;;;;;40.50;4.80;;;8.40;99.90;;;;;;4986384;28;20084;-72
2023/01/31 10:56:56;;;;;;;26.50;4.40;;;8.40;99.90;;;;;;4990133;28;20022;-72
2023/01/31 10:59:36;;;;;;;23.95;4.20;;;8.40;99.90;;;;;;4985868;28;20613;-73
2023/01/31 11:02:03;;;;;;;23.67;3.80;;;8.40;99.90;;;;;;4989096;28;20050;-72
2023/01/31 11:04:38;;;;;;;28.73;4.30;;;8.50;99.90;;;;;;4985107;28;20054;-74
2023/01/31 11:07:05;;;;;;;31.90;4.25;;;8.50;99.90;;;;;;5083412;28;20036;-73
2023/01/31 11:09:38;;;;;;;27.20;5.10;;;8.50;99.90;;;;;;5072571;28;20493;-73
2023/01/31 11:12:06;;;;;;;31.20;4.50;;;8.50;99.90;;;;;;5070525;28;20468;-73
2023/01/31 11:14:32;;;;;;;30.98;4.72;;;8.50;99.90;;;;;;5073365;28;20039;-73
2023/01/31 11:17:07;;;;;;;25.83;4.88;;;8.50;99.90;;;;;;5068859;28;20029;-73
2023/01/31 11:19:49;;;;;;;25.30;3.85;;;8.60;99.90;;;;;;5067395;28;20041;-74
2023/01/31 11:22:27;;;;;;;30.05;4.25;;;8.60;99.90;;;;;;5069327;28;20044;-73
2023/01/31 11:24:54;;;;;;;22.90;4.00;;;8.70;99.90;;;;;;5068385;28;20034;-73
2023/01/31 11:27:30;;;;;;;25.80;3.80;;;8.60;99.90;;;;;;5064360;28;20033;-73
2023/01/31 11:29:58;;;;;;;21.52;3.38;;;8.70;99.90;;;;;;5065449;28;20032;-73
2023/01/31 11:32:28;;;;;;;29.33;4.22;;;8.70;99.90;;;;;;5072453;28;20371;-74
2023/01/31 11:35:20;;;;;;;31.38;4.55;;;8.70;99.90;;;;;;5067626;28;20550;-73
2023/01/31 11:37:58;;;;;;;23.90;3.95;;;8.70;99.90;;;;;;5068306;28;20015;-73
2023/01/31 11:40:38;;;;;;;26.85;3.92;;;8.70;99.90;;;;;;5069472;28;20108;-73
2023/01/31 11:43:20;;;;;;;30.05;4.05;;;8.70;99.90;;;;;;5069195;28;20040;-73
2023/01/31 11:45:57;;;;;;;24.02;4.13;;;8.70;99.90;;;;;;5067716;28;20028;-73
2023/01/31 11:48:45;;;;;;;27.83;3.85;;;8.70;99.90;;;;;;5066356;28;20499;-74
2023/01/31 11:51:29;;;;;;;36.58;5.32;;;8.80;99.90;;;;;;5068854;28;20045;-74
2023/01/31 11:53:56;;;;;;;25.83;3.58;;;8.80;99.90;;;;;;5068677;28;20107;-74
2023/01/31 11:56:26;;;;;;;25.45;4.10;;;8.80;99.90;;;;;;5067525;28;20479;-74
2023/01/31 11:58:55;;;;;;;20.73;3.80;;;8.80;99.90;;;;;;5070330;28;20052;-73
2023/01/31 12:01:23;;;;;;;28.92;4.55;;;8.80;99.90;;;;;;5070559;28;20055;-73
2023/01/31 12:03:55;;;;;;;28.63;4.50;;;8.80;99.90;;;;;;5069142;28;20017;-74
2023/01/31 12:06:31;;;;;;;23.92;4.28;;;8.80;99.90;;;;;;5070617;28;20036;-74
2023/01/31 12:08:58;;;;;;;27.75;4.57;;;8.80;99.90;;;;;;5071947;28;20467;-74
2023/01/31 12:11:29;;;;;;;26.15;4.40;;;8.80;99.90;;;;;;5065007;28;20028;-74
2023/01/31 12:14:14;;;;;;;28.98;4.68;;;8.80;99.90;;;;;;5068367;28;20305;-74
2023/01/31 12:16:43;;;;;;;23.02;3.85;;;8.80;99.90;;;;;;5067413;28;20104;-73
2023/01/31 12:19:12;;;;;;;25.58;4.03;;;8.80;99.90;;;;;;5069675;28;20115;-73
2023/01/31 12:21:59;;;;;;;24.95;4.20;;;8.90;99.90;;;;;;5068172;28;20021;-73
2023/01/31 12:24:45;;;;;;;22.13;4.10;;;8.90;99.90;;;;;;5066652;28;20025;-73
2023/01/31 12:28:05;;;;;;;21.60;3.85;;;8.90;99.90;;;;;;5069242;28;20037;-73
2023/01/31 12:30:33;;;;;;;27.80;4.32;;;8.90;99.90;;;;;;4990247;28;20042;-73
2023/01/31 12:33:08;;;;;;;28.67;4.47;;;9.00;99.90;;;;;;4972633;28;20445;-73
2023/01/31 12:35:42;;;;;;;27.88;4.38;;;9.00;99.90;;;;;;4981358;28;20398;-73
2023/01/31 12:38:36;;;;;;;18.10;3.50;;;9.10;99.90;;;;;;4986622;28;20066;-73
2023/01/31 12:41:07;;;;;;;24.45;4.45;;;9.10;99.90;;;;;;4986242;28;20121;-74
2023/01/31 12:44:09;;;;;;;27.83;4.43;;;9.20;99.90;;;;;;4987495;28;20034;-74
2023/01/31 12:46:55;;;;;;;25.00;4.47;;;9.20;99.90;;;;;;4971856;28;20026;-73
2023/01/31 12:49:39;;;;;;;25.88;4.38;;;9.20;99.90;;;;;;4988485;28;20513;-74
2023/01/31 12:52:24;;;;;;;26.38;3.80;;;9.30;99.90;;;;;;4971502;28;20030;-73
2023/01/31 12:55:21;;;;;;;19.05;3.65;;;9.30;99.90;;;;;;4986439;28;20497;-73
2023/01/31 12:58:02;;;;;;;24.73;4.05;;;9.30;99.90;;;;;;4969065;28;20046;-73
2023/01/31 13:00:41;;;;;;;22.65;3.65;;;9.40;99.90;;;;;;4987560;28;20022;-73
2023/01/31 13:03:52;;;;;;;22.48;4.28;;;9.40;99.90;;;;;;4984239;28;21451;-73
2023/01/31 13:06:27;;;;;;;20.98;3.92;;;9.40;99.90;;;;;;4979773;28;20091;-73
2023/01/31 13:09:08;;;;;;;;;;;9.50;99.90;;;;;;4987517;28;20042;-73
2023/01/31 13:11:40;;;;;;;23.48;4.35;;;9.50;99.90;;;;;;4997600;28;20027;-74
2023/01/31 13:14:12;;;;;;;26.52;4.28;;;9.50;99.90;;;;;;4991758;28;20092;-73
2023/01/31 13:16:43;;;;;;;21.63;3.83;;;9.60;99.90;;;;;;4999248;28;20038;-73